sensor_id;sensor_type;location;lat;lon;timestamp;pressure;altitude;pressure_sealevel;temperature;humidity
63281;BME280;49406;51.044;3.766;2023-03-22T00:00:01;101019.84;;;9.08;100.00
63281;BME280;49406;51.044;3.766;2023-03-22T00:02:38;101012.30;;;9.16;100.00
63281;BME280;49406;51.044;3.766;2023-03-22T00:05:13;101007.67;;;9.22;100.00
63281;BME280;49406;51.044;3.766;2023-03-22T00:07:47;101003.79;;;9.29;100.00
63281;BME280;49406;51.044;3.766;2023-03-22T00:10:22;100996.52;;;9.32;100.00
63281;BME280;49406;51.044;3.766;2023-03-22T00:12:57;100993.80;;;9.37;100.00
63281;BME280;49406;51.044;3.766;2023-03-22T00:15:32;100989.10;;;9.50;100.00
63281;BME280;49406;51.044;3.766;2023-03-22T00:18:08;100987.39;;;9.53;100.00
63281;BME280;49406;51.044;3.766;2023-03-22T00:20:49;100983.92;;;9.55;100.00
63281;BME280;49406;51.044;3.766;2023-03-22T00:23:24;100983.23;;;9.55;100.00
63281;BME280;49406;51.044;3.766;2023-03-22T00:26:00;100976.98;;;9.56;100.00
63281;BME280;49406;51.044;3.766;2023-03-22T00:28:34;100973.05;;;9.50;100.00
63281;BME280;49406;51.044;3.766;2023-03-22T00:31:10;100971.10;;;9.48;100.00
63281;BME280;49406;51.044;3.766;2023-03-22T00:33:45;100965.16;;;9.47;100.00
63281;BME280;49406;51.044;3.766;2023-03-22T00:36:19;100962.41;;;9.61;100.00
63281;BME280;49406;51.044;3.766;2023-03-22T00:38:54;100958.14;;;9.70;100.00
63281;BME280;49406;51.044;3.766;2023-03-22T00:41:29;100946.56;;;9.78;100.00
63281;BME280;49406;51.044;3.766;2023-03-22T00:44:04;100935.48;;;9.87;100.00
63281;BME280;49406;51.044;3.766;2023-03-22T00:46:38;100926.70;;;9.94;100.00
63281;BME280;49406;51.044;3.766;2023-03-22T00:49:13;100924.85;;;10.02;100.00
63281;BME280;49406;51.044;3.766;2023-03-22T00:51:48;100925.66;;;10.12;100.00
63281;BME280;49406;51.044;3.766;2023-03-22T00:54:22;100926.98;;;10.19;100.00
63281;BME280;49406;51.044;3.766;2023-03-22T00:56:57;100920.65;;;10.30;100.00
63281;BME280;49406;51.044;3.766;2023-03-22T00:59:32;100921.86;;;10.45;100.00
63281;BME280;49406;51.044;3.766;2023-03-22T01:02:11;100919.19;;;10.58;100.00
63281;BME280;49406;51.044;3.766;2023-03-22T01:04:46;100917.30;;;10.61;100.00
63281;BME280;49406;51.044;3.766;2023-03-22T01:07:23;100908.94;;;10.64;100.00
63281;BME280;49406;51.044;3.766;2023-03-22T01:09:58;100909.69;;;10.73;100.00
63281;BME280;49406;51.044;3.766;2023-03-22T01:12:32;100910.30;;;10.80;100.00
63281;BME280;49406;51.044;3.766;2023-03-22T01:15:09;100906.30;;;10.84;100.00
63281;BME280;49406;51.044;3.766;2023-03-22T01:17:44;100898.26;;;10.84;100.00
63281;BME280;49406;51.044;3.766;2023-03-22T01:20:17;100899.91;;;10.95;100.00
63281;BME280;49406;51.044;3.766;2023-03-22T01:22:51;100897.00;;;11.02;100.00
63281;BME280;49406;51.044;3.766;2023-03-22T01:25:26;100891.92;;;11.05;100.00
63281;BME280;49406;51.044;3.766;2023-03-22T01:28:01;100896.52;;;11.09;100.00
63281;BME280;49406;51.044;3.766;2023-03-22T01:30:36;100889.16;;;11.09;100.00
63281;BME280;49406;51.044;3.766;2023-03-22T01:33:11;100894.04;;;11.04;100.00
63281;BME280;49406;51.044;3.766;2023-03-22T01:35:46;100889.16;;;11.08;100.00
63281;BME280;49406;51.044;3.766;2023-03-22T01:38:21;100889.21;;;11.15;100.00
63281;BME280;49406;51.044;3.766;2023-03-22T01:40:56;100885.89;;;11.16;100.00
63281;BME280;49406;51.044;3.766;2023-03-22T01:43:31;100889.04;;;11.15;100.00
63281;BME280;49406;51.044;3.766;2023-03-22T01:46:06;100884.45;;;11.09;100.00
63281;BME280;49406;51.044;3.766;2023-03-22T01:48:42;100882.70;;;11.09;100.00
63281;BME280;49406;51.044;3.766;2023-03-22T01:51:20;100879.23;;;11.16;100.00
63281;BME280;49406;51.044;3.766;2023-03-22T01:53:59;100880.83;;;11.18;100.00
63281;BME280;49406;51.044;3.766;2023-03-22T01:56:38;100873.63;;;11.13;100.00
63281;BME280;49406;51.044;3.766;2023-03-22T01:59:14;100864.85;;;11.08;100.00
63281;BME280;49406;51.044;3.766;2023-03-22T02:01:49;100854.02;;;11.12;100.00
63281;BME280;49406;51.044;3.766;2023-03-22T02:04:24;100844.24;;;11.15;100.00
63281;BME280;49406;51.044;3.766;2023-03-22T02:07:08;100841.46;;;11.19;100.00
63281;BME280;49406;51.044;3.766;2023-03-22T02:09:47;100844.98;;;11.24;100.00
63281;BME280;49406;51.044;3.766;2023-03-22T02:12:29;100844.11;;;11.25;100.00
63281;BME280;49406;51.044;3.766;2023-03-22T02:15:11;100835.73;;;11.28;100.00
63281;BME280;49406;51.044;3.766;2023-03-22T02:17:51;100830.52;;;11.34;100.00
63281;BME280;49406;51.044;3.766;2023-03-22T02:30:01;100815.45;;;11.31;100.00
63281;BME280;49406;51.044;3.766;2023-03-22T02:33:02;100813.54;;;11.31;100.00
63281;BME280;49406;51.044;3.766;2023-03-22T02:35:58;100815.42;;;11.24;100.00
63281;BME280;49406;51.044;3.766;2023-03-22T02:39:21;100816.44;;;11.21;100.00
63281;BME280;49406;51.044;3.766;2023-03-22T02:42:16;100807.88;;;11.22;100.00
63281;BME280;49406;51.044;3.766;2023-03-22T02:45:00;100809.62;;;11.21;100.00
63281;BME280;49406;51.044;3.766;2023-03-22T02:47:41;100805.05;;;11.15;100.00
63281;BME280;49406;51.044;3.766;2023-03-22T02:50:21;100803.92;;;11.05;100.00
63281;BME280;49406;51.044;3.766;2023-03-22T02:53:04;100811.46;;;11.06;100.00
63281;BME280;49406;51.044;3.766;2023-03-22T02:55:43;100805.00;;;11.08;100.00
63281;BME280;49406;51.044;3.766;2023-03-22T02:58:22;100806.38;;;11.03;100.00
63281;BME280;49406;51.044;3.766;2023-03-22T03:01:02;100806.50;;;10.93;100.00
63281;BME280;49406;51.044;3.766;2023-03-22T03:03:39;100798.63;;;10.92;100.00
63281;BME280;49406;51.044;3.766;2023-03-22T03:06:18;100797.95;;;10.95;100.00
63281;BME280;49406;51.044;3.766;2023-03-22T03:08:56;100801.24;;;10.92;100.00
63281;BME280;49406;51.044;3.766;2023-03-22T03:11:34;100799.64;;;10.89;100.00
63281;BME280;49406;51.044;3.766;2023-03-22T03:14:20;100795.92;;;10.80;100.00
63281;BME280;49406;51.044;3.766;2023-03-22T03:17:12;100800.61;;;10.75;100.00
63281;BME280;49406;51.044;3.766;2023-03-22T03:19:56;100799.06;;;10.80;100.00
63281;BME280;49406;51.044;3.766;2023-03-22T03:22:43;100797.48;;;10.76;100.00
63281;BME280;49406;51.044;3.766;2023-03-22T03:25:25;100795.31;;;10.68;100.00
63281;BME280;49406;51.044;3.766;2023-03-22T03:28:06;100797.23;;;10.66;100.00
63281;BME280;49406;51.044;3.766;2023-03-22T03:30:46;100797.77;;;10.72;100.00
63281;BME280;49406;51.044;3.766;2023-03-22T03:33:24;100795.85;;;10.72;100.00
63281;BME280;49406;51.044;3.766;2023-03-22T03:36:03;100790.60;;;10.72;100.00
63281;BME280;49406;51.044;3.766;2023-03-22T03:38:41;100793.73;;;10.68;100.00
63281;BME280;49406;51.044;3.766;2023-03-22T03:41:19;100797.40;;;10.66;100.00
63281;BME280;49406;51.044;3.766;2023-03-22T03:43:55;100790.28;;;10.74;100.00
63281;BME280;49406;51.044;3.766;2023-03-22T03:46:31;100793.94;;;10.74;100.00
63281;BME280;49406;51.044;3.766;2023-03-22T03:49:07;100796.61;;;10.76;100.00
63281;BME280;49406;51.044;3.766;2023-03-22T03:51:49;100798.12;;;10.70;100.00
63281;BME280;49406;51.044;3.766;2023-03-22T03:54:24;100799.16;;;10.69;100.00
63281;BME280;49406;51.044;3.766;2023-03-22T03:56:59;100798.16;;;10.76;100.00
63281;BME280;49406;51.044;3.766;2023-03-22T03:59:34;100797.61;;;10.73;100.00
63281;BME280;49406;51.044;3.766;2023-03-22T04:02:09;100798.63;;;10.66;100.00
63281;BME280;49406;51.044;3.766;2023-03-22T04:04:44;100789.34;;;10.65;100.00
63281;BME280;49406;51.044;3.766;2023-03-22T04:07:18;100792.52;;;10.71;100.00
63281;BME280;49406;51.044;3.766;2023-03-22T04:09:53;100789.20;;;10.69;100.00
63281;BME280;49406;51.044;3.766;2023-03-22T04:12:28;100788.81;;;10.62;100.00
63281;BME280;49406;51.044;3.766;2023-03-22T04:15:03;100789.30;;;10.59;100.00
63281;BME280;49406;51.044;3.766;2023-03-22T04:17:38;100780.61;;;10.66;100.00
63281;BME280;49406;51.044;3.766;2023-03-22T04:20:17;100774.15;;;10.67;100.00
63281;BME280;49406;51.044;3.766;2023-03-22T04:22:53;100777.09;;;10.61;100.00
63281;BME280;49406;51.044;3.766;2023-03-22T04:25:27;100771.11;;;10.56;100.00
63281;BME280;49406;51.044;3.766;2023-03-22T04:28:02;100775.17;;;10.62;100.00
63281;BME280;49406;51.044;3.766;2023-03-22T04:30:38;100774.80;;;10.59;100.00
63281;BME280;49406;51.044;3.766;2023-03-22T04:33:12;100773.37;;;10.57;100.00
63281;BME280;49406;51.044;3.766;2023-03-22T04:35:47;100770.35;;;10.47;100.00
63281;BME280;49406;51.044;3.766;2023-03-22T04:38:28;100774.34;;;10.43;100.00
63281;BME280;49406;51.044;3.766;2023-03-22T04:41:03;100781.20;;;10.49;100.00
63281;BME280;49406;51.044;3.766;2023-03-22T04:43:38;100776.83;;;10.49;100.00
63281;BME280;49406;51.044;3.766;2023-03-22T04:46:14;100775.08;;;10.49;100.00
63281;BME280;49406;51.044;3.766;2023-03-22T04:48:48;100783.45;;;10.44;100.00
63281;BME280;49406;51.044;3.766;2023-03-22T04:51:24;100780.14;;;10.48;100.00
63281;BME280;49406;51.044;3.766;2023-03-22T04:53:59;100774.06;;;10.55;100.00
63281;BME280;49406;51.044;3.766;2023-03-22T04:56:33;100771.11;;;10.57;100.00
63281;BME280;49406;51.044;3.766;2023-03-22T04:59:08;100773.89;;;10.56;100.00
63281;BME280;49406;51.044;3.766;2023-03-22T05:01:43;100768.63;;;10.53;100.00
63281;BME280;49406;51.044;3.766;2023-03-22T05:04:19;100768.52;;;10.62;100.00
63281;BME280;49406;51.044;3.766;2023-03-22T05:06:54;100772.23;;;10.66;100.00
63281;BME280;49406;51.044;3.766;2023-03-22T05:09:28;100777.10;;;10.64;100.00
63281;BME280;49406;51.044;3.766;2023-03-22T05:12:03;100776.33;;;10.55;100.00
63281;BME280;49406;51.044;3.766;2023-03-22T05:14:38;100781.27;;;10.58;100.00
63281;BME280;49406;51.044;3.766;2023-03-22T05:17:13;100779.89;;;10.62;100.00
63281;BME280;49406;51.044;3.766;2023-03-22T05:19:48;100777.42;;;10.59;100.00
63281;BME280;49406;51.044;3.766;2023-03-22T05:22:24;100771.61;;;10.54;100.00
63281;BME280;49406;51.044;3.766;2023-03-22T05:24:59;100769.91;;;10.59;100.00
63281;BME280;49406;51.044;3.766;2023-03-22T05:27:34;100769.89;;;10.57;100.00
63281;BME280;49406;51.044;3.766;2023-03-22T05:30:12;100766.02;;;10.55;100.00
63281;BME280;49406;51.044;3.766;2023-03-22T05:32:46;100761.44;;;10.47;100.00
63281;BME280;49406;51.044;3.766;2023-03-22T05:35:21;100763.02;;;10.50;100.00
63281;BME280;49406;51.044;3.766;2023-03-22T05:37:56;100759.17;;;10.50;100.00
63281;BME280;49406;51.044;3.766;2023-03-22T05:40:31;100758.98;;;10.45;100.00
63281;BME280;49406;51.044;3.766;2023-03-22T05:43:06;100758.21;;;10.39;100.00
63281;BME280;49406;51.044;3.766;2023-03-22T05:45:41;100757.73;;;10.42;100.00
63281;BME280;49406;51.044;3.766;2023-03-22T05:48:18;100752.85;;;10.43;100.00
63281;BME280;49406;51.044;3.766;2023-03-22T05:50:52;100755.27;;;10.41;100.00
63281;BME280;49406;51.044;3.766;2023-03-22T05:53:27;100753.12;;;10.35;100.00
63281;BME280;49406;51.044;3.766;2023-03-22T05:56:02;100756.11;;;10.36;100.00
63281;BME280;49406;51.044;3.766;2023-03-22T05:58:37;100754.42;;;10.45;100.00
63281;BME280;49406;51.044;3.766;2023-03-22T06:01:14;100762.65;;;10.45;100.00
63281;BME280;49406;51.044;3.766;2023-03-22T06:03:49;100757.23;;;10.45;100.00
63281;BME280;49406;51.044;3.766;2023-03-22T06:06:24;100751.21;;;10.38;100.00
63281;BME280;49406;51.044;3.766;2023-03-22T06:09:00;100756.67;;;10.43;100.00
63281;BME280;49406;51.044;3.766;2023-03-22T06:11:35;100757.05;;;10.47;100.00
63281;BME280;49406;51.044;3.766;2023-03-22T06:14:09;100758.27;;;10.46;100.00
63281;BME280;49406;51.044;3.766;2023-03-22T06:16:44;100750.21;;;10.43;100.00
63281;BME280;49406;51.044;3.766;2023-03-22T06:19:19;100758.41;;;10.41;100.00
63281;BME280;49406;51.044;3.766;2023-03-22T06:21:54;100752.36;;;10.49;100.00
63281;BME280;49406;51.044;3.766;2023-03-22T06:24:29;100751.84;;;10.51;100.00
63281;BME280;49406;51.044;3.766;2023-03-22T06:27:04;100756.40;;;10.53;100.00
63281;BME280;49406;51.044;3.766;2023-03-22T06:29:39;100758.49;;;10.53;100.00
63281;BME280;49406;51.044;3.766;2023-03-22T06:32:13;100759.02;;;10.54;100.00
63281;BME280;49406;51.044;3.766;2023-03-22T06:34:48;100750.35;;;10.63;100.00
63281;BME280;49406;51.044;3.766;2023-03-22T06:37:23;100757.40;;;10.73;100.00
63281;BME280;49406;51.044;3.766;2023-03-22T06:39:58;100761.45;;;10.76;100.00
63281;BME280;49406;51.044;3.766;2023-03-22T06:42:33;100757.27;;;10.80;100.00
63281;BME280;49406;51.044;3.766;2023-03-22T06:45:09;100761.02;;;10.93;100.00
63281;BME280;49406;51.044;3.766;2023-03-22T06:47:47;100762.64;;;11.02;100.00
63281;BME280;49406;51.044;3.766;2023-03-22T06:50:22;100758.79;;;11.01;100.00
63281;BME280;49406;51.044;3.766;2023-03-22T06:52:57;100753.38;;;11.02;100.00
63281;BME280;49406;51.044;3.766;2023-03-22T06:55:31;100755.88;;;11.13;100.00
63281;BME280;49406;51.044;3.766;2023-03-22T06:58:07;100756.06;;;11.17;100.00
63281;BME280;49406;51.044;3.766;2023-03-22T07:00:41;100762.18;;;11.15;100.00
63281;BME280;49406;51.044;3.766;2023-03-22T07:03:16;100763.23;;;11.17;100.00
63281;BME280;49406;51.044;3.766;2023-03-22T07:05:51;100761.89;;;11.28;100.00
63281;BME280;49406;51.044;3.766;2023-03-22T07:08:26;100766.09;;;11.31;100.00
63281;BME280;49406;51.044;3.766;2023-03-22T07:11:02;100761.55;;;11.29;100.00
63281;BME280;49406;51.044;3.766;2023-03-22T07:13:36;100765.94;;;11.33;100.00
63281;BME280;49406;51.044;3.766;2023-03-22T07:16:11;100762.30;;;11.44;100.00
63281;BME280;49406;51.044;3.766;2023-03-22T07:18:46;100758.44;;;11.42;100.00
63281;BME280;49406;51.044;3.766;2023-03-22T07:21:21;100766.11;;;11.38;100.00
63281;BME280;49406;51.044;3.766;2023-03-22T07:23:56;100762.77;;;11.29;100.00
63281;BME280;49406;51.044;3.766;2023-03-22T07:26:30;100764.71;;;11.35;100.00
63281;BME280;49406;51.044;3.766;2023-03-22T07:29:05;100768.73;;;11.30;100.00
63281;BME280;49406;51.044;3.766;2023-03-22T07:31:40;100772.37;;;11.25;100.00
63281;BME280;49406;51.044;3.766;2023-03-22T07:34:15;100780.98;;;11.34;100.00
63281;BME280;49406;51.044;3.766;2023-03-22T07:36:49;100776.80;;;11.39;100.00
63281;BME280;49406;51.044;3.766;2023-03-22T07:39:24;100782.39;;;11.35;100.00
63281;BME280;49406;51.044;3.766;2023-03-22T07:42:01;100774.15;;;11.32;100.00
63281;BME280;49406;51.044;3.766;2023-03-22T07:44:36;100771.70;;;11.33;100.00
63281;BME280;49406;51.044;3.766;2023-03-22T07:47:10;100771.19;;;11.36;100.00
63281;BME280;49406;51.044;3.766;2023-03-22T07:49:45;100775.90;;;11.31;100.00
63281;BME280;49406;51.044;3.766;2023-03-22T07:52:20;100774.14;;;11.28;100.00
63281;BME280;49406;51.044;3.766;2023-03-22T07:54:54;100779.59;;;11.37;100.00
63281;BME280;49406;51.044;3.766;2023-03-22T07:57:29;100781.89;;;11.42;100.00
63281;BME280;49406;51.044;3.766;2023-03-22T08:00:06;100783.10;;;11.39;100.00
63281;BME280;49406;51.044;3.766;2023-03-22T08:02:42;100773.47;;;11.37;100.00
63281;BME280;49406;51.044;3.766;2023-03-22T08:05:18;100767.39;;;11.49;100.00
63281;BME280;49406;51.044;3.766;2023-03-22T08:07:54;100773.34;;;11.47;100.00
63281;BME280;49406;51.044;3.766;2023-03-22T08:10:29;100777.85;;;11.39;100.00
63281;BME280;49406;51.044;3.766;2023-03-22T08:13:05;100778.05;;;11.45;100.00
63281;BME280;49406;51.044;3.766;2023-03-22T08:15:39;100777.54;;;11.47;100.00
63281;BME280;49406;51.044;3.766;2023-03-22T08:18:15;100772.26;;;11.42;100.00
63281;BME280;49406;51.044;3.766;2023-03-22T08:20:54;100770.17;;;11.45;100.00
63281;BME280;49406;51.044;3.766;2023-03-22T08:23:30;100759.17;;;11.53;100.00
63281;BME280;49406;51.044;3.766;2023-03-22T08:26:05;100759.35;;;11.55;100.00
63281;BME280;49406;51.044;3.766;2023-03-22T08:28:40;100752.52;;;11.55;100.00
63281;BME280;49406;51.044;3.766;2023-03-22T08:31:15;100756.38;;;11.56;100.00
63281;BME280;49406;51.044;3.766;2023-03-22T08:33:50;100751.48;;;11.62;100.00
63281;BME280;49406;51.044;3.766;2023-03-22T08:36:25;100752.05;;;11.76;100.00
63281;BME280;49406;51.044;3.766;2023-03-22T08:39:01;100750.85;;;11.77;100.00
63281;BME280;49406;51.044;3.766;2023-03-22T08:41:37;100753.77;;;11.71;100.00
63281;BME280;49406;51.044;3.766;2023-03-22T08:44:12;100750.29;;;11.73;100.00
63281;BME280;49406;51.044;3.766;2023-03-22T08:46:46;100749.46;;;11.86;100.00
63281;BME280;49406;51.044;3.766;2023-03-22T08:49:21;100751.04;;;11.86;100.00
63281;BME280;49406;51.044;3.766;2023-03-22T08:51:56;100749.12;;;11.80;100.00
63281;BME280;49406;51.044;3.766;2023-03-22T08:54:31;100747.36;;;11.82;100.00
63281;BME280;49406;51.044;3.766;2023-03-22T08:57:06;100747.02;;;11.91;100.00
63281;BME280;49406;51.044;3.766;2023-03-22T08:59:42;100740.90;;;11.97;100.00
63281;BME280;49406;51.044;3.766;2023-03-22T09:02:17;100739.67;;;11.93;100.00
63281;BME280;49406;51.044;3.766;2023-03-22T09:04:51;100743.18;;;11.97;100.00
63281;BME280;49406;51.044;3.766;2023-03-22T09:07:26;100750.01;;;12.09;100.00
63281;BME280;49406;51.044;3.766;2023-03-22T09:10:01;100748.09;;;12.16;100.00
63281;BME280;49406;51.044;3.766;2023-03-22T09:12:36;100744.42;;;12.15;100.00
63281;BME280;49406;51.044;3.766;2023-03-22T09:15:11;100742.84;;;12.15;100.00
63281;BME280;49406;51.044;3.766;2023-03-22T09:17:46;100740.90;;;12.20;100.00
63281;BME280;49406;51.044;3.766;2023-03-22T09:20:21;100740.20;;;12.17;100.00
63281;BME280;49406;51.044;3.766;2023-03-22T09:22:57;100752.45;;;12.06;100.00
63281;BME280;49406;51.044;3.766;2023-03-22T09:25:32;100748.27;;;11.96;100.00
63281;BME280;49406;51.044;3.766;2023-03-22T09:28:06;100746.69;;;11.95;100.00
63281;BME280;49406;51.044;3.766;2023-03-22T09:30:41;100746.48;;;11.87;100.00
63281;BME280;49406;51.044;3.766;2023-03-22T09:33:16;100743.33;;;11.80;100.00
63281;BME280;49406;51.044;3.766;2023-03-22T09:35:54;100750.10;;;11.69;100.00
63281;BME280;49406;51.044;3.766;2023-03-22T09:38:29;100745.51;;;11.55;100.00
63281;BME280;49406;51.044;3.766;2023-03-22T09:41:06;100739.38;;;11.50;100.00
63281;BME280;49406;51.044;3.766;2023-03-22T09:43:44;100749.69;;;11.43;100.00
63281;BME280;49406;51.044;3.766;2023-03-22T09:46:26;100745.10;;;11.34;100.00
63281;BME280;49406;51.044;3.766;2023-03-22T09:49:05;100746.14;;;11.31;100.00
63281;BME280;49406;51.044;3.766;2023-03-22T09:51:45;100744.41;;;11.33;100.00
63281;BME280;49406;51.044;3.766;2023-03-22T09:54:23;100740.89;;;11.28;100.00
63281;BME280;49406;51.044;3.766;2023-03-22T09:57:04;100746.67;;;11.29;100.00
63281;BME280;49406;51.044;3.766;2023-03-22T09:59:46;100746.16;;;11.33;100.00
63281;BME280;49406;51.044;3.766;2023-03-22T10:02:40;100742.65;;;11.33;100.00
63281;BME280;49406;51.044;3.766;2023-03-22T10:05:23;100746.69;;;11.35;100.00
63281;BME280;49406;51.044;3.766;2023-03-22T10:08:09;100743.70;;;11.31;100.00
63281;BME280;49406;51.044;3.766;2023-03-22T10:10:47;100738.45;;;11.29;100.00
63281;BME280;49406;51.044;3.766;2023-03-22T10:13:29;100732.67;;;11.30;100.00
63281;BME280;49406;51.044;3.766;2023-03-22T10:16:10;100734.25;;;11.33;100.00
63281;BME280;49406;51.044;3.766;2023-03-22T10:18:50;100730.41;;;11.37;100.00
63281;BME280;49406;51.044;3.766;2023-03-22T10:21:26;100729.36;;;11.40;100.00
63281;BME280;49406;51.044;3.766;2023-03-22T10:24:05;100725.54;;;11.43;100.00
63281;BME280;49406;51.044;3.766;2023-03-22T10:26:46;100727.96;;;11.40;100.00
63281;BME280;49406;51.044;3.766;2023-03-22T10:29:25;100723.77;;;11.42;100.00
63281;BME280;49406;51.044;3.766;2023-03-22T10:32:14;100724.48;;;11.47;100.00
63281;BME280;49406;51.044;3.766;2023-03-22T10:34:49;100722.22;;;11.44;100.00
63281;BME280;49406;51.044;3.766;2023-03-22T10:37:28;100723.45;;;11.50;100.00
63281;BME280;49406;51.044;3.766;2023-03-22T10:40:06;100711.37;;;11.56;100.00
63281;BME280;49406;51.044;3.766;2023-03-22T10:42:48;100716.30;;;11.60;100.00
63281;BME280;49406;51.044;3.766;2023-03-22T10:45:24;100718.77;;;11.65;100.00
63281;BME280;49406;51.044;3.766;2023-03-22T10:48:03;100721.56;;;11.69;100.00
63281;BME280;49406;51.044;3.766;2023-03-22T10:50:41;100711.08;;;11.78;100.00
63281;BME280;49406;51.044;3.766;2023-03-22T10:53:26;100685.52;;;11.86;100.00
63281;BME280;49406;51.044;3.766;2023-03-22T10:56:03;100693.06;;;12.05;100.00
63281;BME280;49406;51.044;3.766;2023-03-22T10:58:38;100697.80;;;12.23;100.00
63281;BME280;49406;51.044;3.766;2023-03-22T11:01:15;100694.80;;;12.31;100.00
63281;BME280;49406;51.044;3.766;2023-03-22T11:03:51;100690.41;;;12.38;100.00
63281;BME280;49406;51.044;3.766;2023-03-22T11:06:30;100695.66;;;12.41;100.00
63281;BME280;49406;51.044;3.766;2023-03-22T11:09:14;100699.83;;;12.55;100.00
63281;BME280;49406;51.044;3.766;2023-03-22T11:11:50;100701.07;;;12.61;100.00
63281;BME280;49406;51.044;3.766;2023-03-22T11:14:29;100707.02;;;12.63;100.00
63281;BME280;49406;51.044;3.766;2023-03-22T11:17:10;100709.83;;;12.63;100.00
63281;BME280;49406;51.044;3.766;2023-03-22T11:19:53;100710.85;;;12.71;100.00
63281;BME280;49406;51.044;3.766;2023-03-22T11:22:32;100717.68;;;12.77;100.00
63281;BME280;49406;51.044;3.766;2023-03-22T11:25:14;100709.79;;;12.82;100.00
63281;BME280;49406;51.044;3.766;2023-03-22T11:27:52;100706.77;;;12.88;100.00
63281;BME280;49406;51.044;3.766;2023-03-22T11:30:29;100713.94;;;12.92;100.00
63281;BME280;49406;51.044;3.766;2023-03-22T11:33:14;100714.84;;;12.86;100.00
63281;BME280;49406;51.044;3.766;2023-03-22T11:35:54;100716.45;;;12.80;100.00
63281;BME280;49406;51.044;3.766;2023-03-22T11:38:35;100716.23;;;12.87;100.00
63281;BME280;49406;51.044;3.766;2023-03-22T11:41:18;100712.21;;;12.86;100.00
63281;BME280;49406;51.044;3.766;2023-03-22T11:43:53;100708.20;;;12.80;100.00
63281;BME280;49406;51.044;3.766;2023-03-22T11:46:29;100715.22;;;12.75;100.00
63281;BME280;49406;51.044;3.766;2023-03-22T11:49:07;100714.35;;;12.73;100.00
63281;BME280;49406;51.044;3.766;2023-03-22T11:51:46;100718.20;;;12.81;100.00
63281;BME280;49406;51.044;3.766;2023-03-22T11:54:28;100712.77;;;12.75;100.00
63281;BME280;49406;51.044;3.766;2023-03-22T11:57:08;100716.27;;;12.73;100.00
63281;BME280;49406;51.044;3.766;2023-03-22T11:59:49;100718.02;;;12.76;100.00
63281;BME280;49406;51.044;3.766;2023-03-22T12:02:28;100716.63;;;12.74;100.00
63281;BME280;49406;51.044;3.766;2023-03-22T12:05:10;100715.58;;;12.81;100.00
63281;BME280;49406;51.044;3.766;2023-03-22T12:07:49;100718.17;;;12.85;100.00
63281;BME280;49406;51.044;3.766;2023-03-22T12:10:29;100708.55;;;12.83;100.00
63281;BME280;49406;51.044;3.766;2023-03-22T12:13:09;100695.55;;;12.84;100.00
63281;BME280;49406;51.044;3.766;2023-03-22T12:15:50;100697.45;;;12.96;100.00
63281;BME280;49406;51.044;3.766;2023-03-22T12:18:28;100696.53;;;13.03;100.00
63281;BME280;49406;51.044;3.766;2023-03-22T12:21:04;100696.67;;;13.07;100.00
63281;BME280;49406;51.044;3.766;2023-03-22T12:23:39;100692.11;;;13.08;100.00
63281;BME280;49406;51.044;3.766;2023-03-22T12:26:16;100699.84;;;13.13;100.00
63281;BME280;49406;51.044;3.766;2023-03-22T12:28:54;100695.60;;;13.17;100.00
63281;BME280;49406;51.044;3.766;2023-03-22T12:31:32;100692.77;;;13.25;100.00
63281;BME280;49406;51.044;3.766;2023-03-22T12:34:14;100690.80;;;13.34;100.00
63281;BME280;49406;51.044;3.766;2023-03-22T12:36:52;100689.33;;;13.46;100.00
63281;BME280;49406;51.044;3.766;2023-03-22T12:39:32;100693.36;;;13.47;100.00
63281;BME280;49406;51.044;3.766;2023-03-22T12:42:14;100694.84;;;13.64;100.00
63281;BME280;49406;51.044;3.766;2023-03-22T12:44:53;100691.42;;;13.73;100.00
63281;BME280;49406;51.044;3.766;2023-03-22T12:47:35;100689.86;;;13.70;100.00
63281;BME280;49406;51.044;3.766;2023-03-22T12:50:16;100679.70;;;13.69;100.00
63281;BME280;49406;51.044;3.766;2023-03-22T12:52:52;100682.29;;;13.73;100.00
63281;BME280;49406;51.044;3.766;2023-03-22T12:55:30;100673.84;;;13.77;100.00
63281;BME280;49406;51.044;3.766;2023-03-22T12:58:08;100685.86;;;13.66;100.00
63281;BME280;49406;51.044;3.766;2023-03-22T13:00:47;100674.52;;;13.53;100.00
63281;BME280;49406;51.044;3.766;2023-03-22T13:03:26;100682.59;;;13.55;100.00
63281;BME280;49406;51.044;3.766;2023-03-22T13:06:05;100679.41;;;13.59;100.00
63281;BME280;49406;51.044;3.766;2023-03-22T13:09:02;100680.45;;;13.61;100.00
63281;BME280;49406;51.044;3.766;2023-03-22T13:11:36;100681.32;;;13.60;100.00
63281;BME280;49406;51.044;3.766;2023-03-22T13:14:52;100678.10;;;13.70;100.00
63281;BME280;49406;51.044;3.766;2023-03-22T13:17:39;100676.88;;;13.69;100.00
63281;BME280;49406;51.044;3.766;2023-03-22T13:20:29;100670.42;;;13.63;100.00
63281;BME280;49406;51.044;3.766;2023-03-22T13:23:23;100670.08;;;13.63;100.00
63281;BME280;49406;51.044;3.766;2023-03-22T13:26:02;100662.45;;;13.71;100.00
63281;BME280;49406;51.044;3.766;2023-03-22T13:28:39;100650.52;;;13.70;100.00
63281;BME280;49406;51.044;3.766;2023-03-22T13:31:33;100657.39;;;13.68;100.00
63281;BME280;49406;51.044;3.766;2023-03-22T13:34:16;100655.10;;;13.68;100.00
63281;BME280;49406;51.044;3.766;2023-03-22T13:36:54;100650.83;;;13.75;100.00
63281;BME280;49406;51.044;3.766;2023-03-22T13:39:33;100654.20;;;13.71;100.00
63281;BME280;49406;51.044;3.766;2023-03-22T13:42:19;100655.52;;;13.58;100.00